Stations météo

réclame
Mon MeteoGroup
Altenstadt, Allemagne (10954): Température de l'air & dewpoint: 19.09.2018 09:00:00 - 25.09.2018 09:00:00 (CEST)Altenstadt, Allemagne (10954): Vitesse du vent & gusts: 19.09.2018 09:00:00 - 25.09.2018 09:00:00 (CEST)Altenstadt, Allemagne (10954): Direction du vent: 19.09.2018 09:00:00 - 25.09.2018 09:00:00 (CEST)Altenstadt, Allemagne (10954): visibility: 19.09.2018 09:00:00 - 25.09.2018 09:00:00 (CEST)
Date & Time tt [°C] td [°C] ff [km/h] ff [knt] fx [km/h] fx [knt] dd vv [km]
25.09.2018 09:00:00 3,2 1,7 7 4 - - E 60
25.09.2018 08:00:00 0,3 -0,5 4 2 - - N 60
25.09.2018 07:00:00 0,6 0,0 4 2 - - N 30
25.09.2018 06:00:00 1,0 0,2 4 2 - - W 25
25.09.2018 05:00:00 1,5 0,7 7 4 - - SSW 25
25.09.2018 04:00:00 1,1 0,2 7 4 - - W -
25.09.2018 03:00:00 1,5 0,2 7 4 - - WSW -
25.09.2018 02:00:00 1,8 0,7 7 4 - - WSW -
25.09.2018 01:00:00 2,3 0,8 4 2 - - SW -
25.09.2018 00:00:00 2,7 1,1 7 4 - - WSW -
24.09.2018 23:00:00 3,1 1,5 7 4 - - WSW -
24.09.2018 22:00:00 4,4 1,8 7 4 - - WSW -
24.09.2018 21:00:00 5,4 1,7 4 2 - - N 30
24.09.2018 20:00:00 6,2 2,2 7 4 - - W 40
24.09.2018 19:00:00 8,4 0,8 11 6 - - NNW 40
24.09.2018 18:00:00 10,1 -0,1 7 4 - - NNW 40
24.09.2018 17:00:00 9,3 1,0 14 8 - - NW 40
24.09.2018 16:00:00 10,2 1,1 18 10 - - N 40
24.09.2018 15:00:00 10,0 1,6 18 10 - - NNW 30
24.09.2018 14:00:00 9,7 2,1 14 8 - - NW 30
24.09.2018 13:00:00 9,3 1,6 14 8 - - NW 20
24.09.2018 12:00:00 8,2 3,2 14 8 - - NW 20
24.09.2018 11:00:00 7,2 4,3 14 8 - - NNW 20
24.09.2018 10:00:00 6,2 3,8 14 8 - - NW 12
24.09.2018 09:00:00 6,2 4,3 11 6 - - NNW 12
24.09.2018 08:00:00 5,9 4,1 14 8 - - N 12
24.09.2018 07:00:00 6,0 4,5 14 8 - - NNW 12
24.09.2018 06:00:00 6,2 4,7 14 8 - - NNW 11
24.09.2018 05:00:00 7,0 5,7 18 10 - - N 10
24.09.2018 04:00:00 7,7 6,1 22 12 - - NW -
24.09.2018 03:00:00 8,0 6,7 18 10 - - WNW -
24.09.2018 02:00:00 8,8 7,4 22 12 - - WNW -
24.09.2018 01:00:00 9,3 8,0 25 14 54 29 WNW -
24.09.2018 00:00:00 9,4 8,7 36 19 61 33 NW -
23.09.2018 23:00:00 12,0 11,2 29 16 - - W -
23.09.2018 22:00:00 12,4 11,5 50 27 112 60 WNW -
23.09.2018 21:00:00 19,7 14,8 32 18 65 35 W -
23.09.2018 20:00:00 20,9 14,0 47 25 - - W -
23.09.2018 19:00:00 21,4 14,2 40 21 68 37 W -
23.09.2018 18:00:00 22,2 14,5 43 23 68 37 W -
23.09.2018 17:00:00 21,5 14,4 43 23 - - W -
23.09.2018 16:00:00 21,6 14,1 54 29 76 41 W -
23.09.2018 15:00:00 21,8 14,6 43 23 72 39 W -
23.09.2018 14:00:00 21,9 14,8 43 23 - - W -
23.09.2018 13:00:00 21,7 15,3 36 19 58 31 W -
23.09.2018 12:00:00 19,1 14,2 40 21 54 29 W -
23.09.2018 11:00:00 18,9 14,1 40 21 - - W -
23.09.2018 10:00:00 17,9 13,6 43 23 61 33 W -
23.09.2018 09:00:00 16,1 12,8 36 19 54 29 W -
23.09.2018 08:00:00 15,3 12,8 36 19 - - W -
23.09.2018 07:00:00 14,3 12,2 22 12 47 25 W -
23.09.2018 06:00:00 11,2 10,6 11 6 - - S -
23.09.2018 05:00:00 11,6 10,7 22 12 - - W -
23.09.2018 04:00:00 10,4 9,7 11 6 - - W -
23.09.2018 03:00:00 10,2 9,3 22 12 - - WNW -
23.09.2018 02:00:00 10,6 8,4 18 10 - - WNW -
23.09.2018 01:00:00 10,8 9,5 4 2 - - N -
23.09.2018 00:00:00 10,8 9,6 4 2 - - WNW -
22.09.2018 23:00:00 11,3 8,9 7 4 - - N -
22.09.2018 22:00:00 11,2 9,4 4 2 - - N -
22.09.2018 21:00:00 11,9 8,6 7 4 - - SW -
22.09.2018 20:00:00 12,0 7,9 4 2 - - N -
22.09.2018 19:00:00 12,5 7,3 4 2 - - SW -
22.09.2018 18:00:00 14,3 7,3 7 4 - - WNW -
22.09.2018 17:00:00 14,1 6,5 7 4 - - W -
22.09.2018 16:00:00 14,2 6,5 11 6 - - W -
22.09.2018 15:00:00 14,2 5,5 7 4 - - SW -
22.09.2018 14:00:00 13,1 5,4 7 4 - - WSW -
22.09.2018 13:00:00 13,0 6,0 7 4 - - NW -
22.09.2018 12:00:00 12,2 4,5 4 2 - - S -
22.09.2018 11:00:00 12,0 5,0 11 6 - - NW -
22.09.2018 10:00:00 10,9 7,1 11 6 - - W -
22.09.2018 09:00:00 9,3 7,8 11 6 - - W -
22.09.2018 08:00:00 8,0 7,0 7 4 - - SW -
22.09.2018 07:00:00 8,6 7,4 11 6 - - WSW -
22.09.2018 06:00:00 9,0 7,9 11 6 - - WSW -
22.09.2018 05:00:00 9,2 7,7 11 6 - - W -
22.09.2018 04:00:00 9,5 8,0 11 6 - - W -
22.09.2018 03:00:00 9,6 7,8 11 6 - - W -
22.09.2018 02:00:00 9,5 7,8 11 6 - - W -
22.09.2018 01:00:00 9,6 7,3 11 6 - - WNW -
22.09.2018 00:00:00 10,2 8,6 11 6 - - W -
21.09.2018 23:00:00 10,7 9,8 18 10 - - NNW -
21.09.2018 22:00:00 13,1 12,1 29 16 58 31 NNW -
21.09.2018 21:00:00 16,7 13,5 25 14 50 27 W 20
21.09.2018 20:00:00 17,6 13,4 40 21 - - WNW 20
21.09.2018 19:00:00 20,3 12,6 22 12 - - WNW 40
21.09.2018 18:00:00 20,7 12,8 18 10 - - WNW 50
21.09.2018 17:00:00 22,0 13,9 11 6 - - WSW 50
21.09.2018 16:00:00 22,7 12,9 18 10 54 29 W 50
21.09.2018 15:00:00 23,9 11,4 40 21 54 29 WNW 50
21.09.2018 14:00:00 24,6 11,0 32 18 - - W 70
21.09.2018 13:00:00 22,8 11,9 29 16 - - W 70
21.09.2018 12:00:00 23,4 12,7 25 14 - - W 70
21.09.2018 11:00:00 21,7 12,4 29 16 - - W 60
21.09.2018 10:00:00 18,1 13,5 7 4 - - SW 60
21.09.2018 09:00:00 13,3 11,1 7 4 - - WSW 60
21.09.2018 08:00:00 11,4 9,7 7 4 - - WSW 50
21.09.2018 07:00:00 11,1 9,6 11 6 - - W 45
21.09.2018 06:00:00 12,3 10,4 7 4 - - WSW 15
21.09.2018 05:00:00 12,0 10,8 11 6 - - W 15
21.09.2018 04:00:00 11,9 11,0 7 4 - - WSW -
21.09.2018 03:00:00 12,0 10,8 7 4 - - W -
21.09.2018 02:00:00 12,9 11,5 11 6 - - WSW -
21.09.2018 01:00:00 13,2 11,6 7 4 - - W -
21.09.2018 00:00:00 14,0 11,6 7 4 - - SW -
20.09.2018 23:00:00 15,2 11,7 4 2 - - WSW -
20.09.2018 22:00:00 15,4 12,5 4 2 - - SSW -
20.09.2018 21:00:00 17,0 12,0 0 0 - - N 20
20.09.2018 20:00:00 19,1 11,5 4 2 - - NNE 50
20.09.2018 19:00:00 22,0 10,6 7 4 - - ESE 50
20.09.2018 18:00:00 23,3 12,2 11 6 - - E 50
20.09.2018 17:00:00 24,2 10,6 7 4 - - E 50
20.09.2018 16:00:00 24,3 11,5 7 4 - - E 50
20.09.2018 15:00:00 24,8 9,8 4 2 - - SE 50
20.09.2018 14:00:00 24,3 12,1 7 4 - - NNW 50
20.09.2018 13:00:00 23,4 12,7 4 2 - - NNE 50
20.09.2018 12:00:00 22,3 11,8 4 2 - - NNW 50
20.09.2018 11:00:00 20,0 12,6 4 2 - - S 50
20.09.2018 10:00:00 17,2 12,4 4 2 - - SSW 50
20.09.2018 09:00:00 13,1 11,1 4 2 - - WSW 50
20.09.2018 08:00:00 11,2 10,1 7 4 - - W 50
20.09.2018 07:00:00 10,5 9,7 7 4 - - W 25
20.09.2018 06:00:00 10,2 9,5 7 4 - - W 12
20.09.2018 05:00:00 11,2 10,5 7 4 - - WSW 12
20.09.2018 04:00:00 11,5 10,7 7 4 - - W -
20.09.2018 03:00:00 12,3 11,3 7 4 - - WSW -
20.09.2018 02:00:00 12,6 11,6 7 4 - - WSW -
20.09.2018 01:00:00 13,1 11,7 7 4 - - WSW -
20.09.2018 00:00:00 14,1 11,9 7 4 - - WSW -
19.09.2018 23:00:00 14,3 12,2 7 4 - - WSW -
19.09.2018 22:00:00 15,0 12,8 7 4 - - SW -
19.09.2018 21:00:00 16,7 13,4 4 2 - - SW 50
19.09.2018 20:00:00 18,4 12,6 4 2 - - N 60
19.09.2018 19:00:00 20,5 14,0 4 2 - - NE 60
19.09.2018 18:00:00 23,2 11,9 4 2 - - NNE 50
19.09.2018 17:00:00 24,9 11,2 4 2 - - WSW 50
19.09.2018 16:00:00 24,8 11,9 4 2 - - WNW 50
19.09.2018 15:00:00 24,5 12,7 4 2 - - NW 45
19.09.2018 14:00:00 23,0 13,3 4 2 - - NE 45
19.09.2018 13:00:00 22,2 12,7 7 4 - - NNE 45
19.09.2018 12:00:00 21,7 13,2 4 2 - - WNW 45
19.09.2018 11:00:00 19,5 13,7 4 2 - - W 40
19.09.2018 10:00:00 16,1 13,0 4 2 - - N 35
19.09.2018 09:00:00 12,4 11,6 4 2 - - N 30

tt = Température de l'air
td = dewpoint
ff = Vitesse du vent
fx = gusts
dd = Direction du vent
vv = visibility

stations d'obs. à proximité